Time;durP1;ratioP1;P1;durP2;ratioP2;P2;SDS_P1;SDS_P2;PMS_P1;PMS_P2;Temp;Humidity;BMP_temperature;BMP_pressure;BME280_temperature;BME280_humidity;BME280_pressure;Samples;Min_cycle;Max_cycle;Signal;HPM_P1;HPM_P2
2022/07/13 00:01:18;;;;;;;6.77;6.27;;;22.50;99.20;;;;;;5057945;28;20193;-72
2022/07/13 00:03:44;;;;;;;6.87;6.47;;;22.40;97.70;;;;;;5053494;28;20253;-74
2022/07/13 00:06:09;;;;;;;6.60;6.20;;;22.30;97.60;;;;;;5071648;28;20181;-73
2022/07/13 00:08:35;;;;;;;7.00;6.60;;;22.20;97.90;;;;;;5072168;28;20209;-73
2022/07/13 00:11:01;;;;;;;7.47;6.97;;;22.20;98.10;;;;;;5072802;28;20271;-73
2022/07/13 00:13:27;;;;;;;6.80;6.30;;;22.30;98.70;;;;;;5053814;28;20177;-73
2022/07/13 00:15:53;;;;;;;6.83;6.33;;;22.30;99.00;;;;;;5072670;28;20194;-73
2022/07/13 00:18:18;;;;;;;7.50;6.90;;;22.30;98.80;;;;;;5073649;28;20203;-73
2022/07/13 00:20:45;;;;;;;6.13;5.63;;;22.30;98.70;;;;;;5071850;28;20463;-75
2022/07/13 00:23:11;;;;;;;6.50;6.10;;;22.30;99.20;;;;;;5073146;28;20190;-72
2022/07/13 00:25:37;;;;;;;6.50;6.17;;;22.40;99.90;;;;;;5055439;28;20423;-72
2022/07/13 00:28:03;;;;;;;5.90;5.50;;;22.40;99.90;;;;;;5072166;28;20868;-73
2022/07/13 00:30:28;;;;;;;6.57;6.17;;;22.40;99.70;;;;;;5064441;28;20264;-73
2022/07/13 00:32:54;;;;;;;6.33;5.93;;;22.40;99.80;;;;;;5052542;28;20470;-73
2022/07/13 00:35:20;;;;;;;6.37;5.97;;;22.30;99.50;;;;;;5053195;28;20178;-73
2022/07/13 00:37:45;;;;;;;6.47;6.07;;;22.30;99.50;;;;;;5065829;28;20228;-75
2022/07/13 00:40:12;;;;;;;6.73;6.30;;;22.30;99.60;;;;;;5071428;28;20181;-72
2022/07/13 00:42:38;;;;;;;6.53;6.10;;;22.40;99.90;;;;;;5045444;28;20193;-73
2022/07/13 00:45:04;;;;;;;6.87;6.37;;;22.30;99.90;;;;;;5051897;28;20806;-72
2022/07/13 00:47:34;;;;;;;7.40;6.80;;;22.40;99.90;;;;;;5062972;28;20928;-73
2022/07/13 00:50:08;;;;;;;6.70;6.30;;;22.40;99.90;;;;;;5070749;28;20443;-73
2022/07/13 00:52:37;;;;;;;6.97;6.30;;;22.40;99.90;;;;;;5073031;28;20482;-72
2022/07/13 00:55:06;;;;;;;6.70;6.20;;;22.30;99.90;;;;;;5071203;28;20508;-72
2022/07/13 00:57:36;;;;;;;6.33;5.93;;;22.40;99.90;;;;;;5072719;28;20500;-73
2022/07/13 01:00:06;;;;;;;6.83;6.33;;;22.30;99.90;;;;;;5067339;28;20424;-73
2022/07/13 01:02:31;;;;;;;6.03;5.73;;;22.30;99.90;;;;;;5067587;28;20443;-73
2022/07/13 01:05:00;;;;;;;7.50;7.10;;;22.30;99.90;;;;;;5071915;28;20407;-73
2022/07/13 01:07:25;;;;;;;7.70;7.07;;;22.30;99.90;;;;;;5072521;28;20657;-73
2022/07/13 01:09:51;;;;;;;7.47;6.87;;;22.40;99.90;;;;;;5071727;28;20550;-72
2022/07/13 01:12:17;;;;;;;6.80;6.30;;;22.40;99.90;;;;;;5070833;28;20188;-71
2022/07/13 01:14:43;;;;;;;9.07;8.27;;;22.30;99.90;;;;;;5072108;28;20648;-71
2022/07/13 01:17:10;;;;;;;7.50;7.00;;;22.30;99.90;;;;;;5071394;28;20173;-72
2022/07/13 01:19:36;;;;;;;7.57;6.73;;;22.30;99.90;;;;;;5072219;28;20192;-71
2022/07/13 01:22:03;;;;;;;7.67;7.17;;;22.30;99.90;;;;;;5067445;28;20481;-72
2022/07/13 01:24:30;;;;;;;7.50;6.80;;;22.30;99.90;;;;;;5072369;28;20450;-71
2022/07/13 01:26:56;;;;;;;6.77;6.37;;;22.20;99.90;;;;;;5069464;28;20897;-71
2022/07/13 01:29:22;;;;;;;7.90;7.40;;;22.10;99.90;;;;;;5072566;28;20419;-71
2022/07/13 01:31:48;;;;;;;8.40;7.70;;;22.10;99.90;;;;;;5035140;28;20486;-75
2022/07/13 01:34:13;;;;;;;7.87;7.33;;;22.10;99.90;;;;;;5052095;28;20173;-71
2022/07/13 01:36:41;;;;;;;8.50;7.80;;;22.10;99.90;;;;;;5052188;28;20648;-71
2022/07/13 01:39:07;;;;;;;8.67;8.07;;;22.10;99.90;;;;;;5053713;28;20985;-71
2022/07/13 01:41:33;;;;;;;7.90;7.30;;;22.00;99.90;;;;;;5020229;28;20447;-71
2022/07/13 01:43:59;;;;;;;8.23;7.73;;;22.10;99.90;;;;;;5052155;28;20173;-71
2022/07/13 01:46:26;;;;;;;7.33;6.83;;;22.10;99.90;;;;;;5054084;28;20403;-71
2022/07/13 01:48:54;;;;;;;8.20;7.60;;;22.10;99.90;;;;;;5071267;28;20834;-75
2022/07/13 01:51:20;;;;;;;9.33;8.73;;;22.00;99.90;;;;;;5052749;28;20526;-71
2022/07/13 01:53:46;;;;;;;8.40;7.70;;;21.90;99.90;;;;;;5070387;28;20557;-71
2022/07/13 01:56:12;;;;;;;7.50;7.07;;;21.90;99.90;;;;;;5071249;28;20165;-71
2022/07/13 01:58:38;;;;;;;9.20;8.50;;;21.90;99.90;;;;;;5075307;28;20423;-71
2022/07/13 02:01:04;;;;;;;7.70;7.13;;;21.90;99.90;;;;;;5062720;28;20428;-71
2022/07/13 02:03:31;;;;;;;8.67;7.77;;;21.90;99.90;;;;;;5056065;28;20539;-71
2022/07/13 02:05:57;;;;;;;8.13;7.50;;;22.00;99.90;;;;;;5055206;28;20415;-72
2022/07/13 02:08:23;;;;;;;7.77;7.20;;;22.00;99.90;;;;;;5055882;28;20962;-71
2022/07/13 02:10:49;;;;;;;8.40;7.80;;;22.00;99.90;;;;;;5038141;28;20408;-71
2022/07/13 02:13:15;;;;;;;8.93;8.30;;;21.90;99.90;;;;;;5054814;28;20196;-71
2022/07/13 02:15:43;;;;;;;8.00;7.47;;;21.90;99.90;;;;;;5063491;28;20934;-71
2022/07/13 02:18:09;;;;;;;8.00;7.50;;;21.90;99.90;;;;;;5055551;28;20805;-72
2022/07/13 02:20:35;;;;;;;8.77;8.17;;;21.80;99.90;;;;;;5058216;28;20466;-71
2022/07/13 02:23:01;;;;;;;8.90;8.30;;;21.70;99.90;;;;;;5075163;28;20422;-71
2022/07/13 02:25:27;;;;;;;8.60;8.00;;;21.70;99.90;;;;;;5075807;28;20507;-72
2022/07/13 02:27:53;;;;;;;8.13;7.57;;;21.60;99.90;;;;;;5073929;28;21092;-75
2022/07/13 02:30:19;;;;;;;8.70;8.17;;;21.60;99.90;;;;;;5073922;28;20509;-71
2022/07/13 02:32:45;;;;;;;8.50;7.93;;;21.60;99.90;;;;;;5074363;28;20180;-71
2022/07/13 02:35:12;;;;;;;7.40;7.00;;;21.60;99.90;;;;;;5071861;28;20430;-71
2022/07/13 02:37:38;;;;;;;8.40;7.80;;;21.60;99.90;;;;;;5075412;28;20484;-71
2022/07/13 02:40:05;;;;;;;8.77;8.07;;;21.50;99.90;;;;;;5074623;28;20410;-72
2022/07/13 02:42:31;;;;;;;8.47;7.77;;;21.50;99.90;;;;;;5073682;28;20514;-72
2022/07/13 02:44:57;;;;;;;8.70;8.00;;;21.40;99.90;;;;;;5074249;28;20495;-72
2022/07/13 02:47:23;;;;;;;8.03;7.30;;;21.50;99.90;;;;;;5075565;28;20664;-72
2022/07/13 02:49:49;;;;;;;8.13;7.50;;;21.50;99.90;;;;;;5075288;28;20450;-72
2022/07/13 02:52:16;;;;;;;8.40;7.73;;;21.60;99.90;;;;;;5074437;28;20508;-71
2022/07/13 02:54:41;;;;;;;8.10;7.30;;;21.60;99.90;;;;;;5075047;28;20916;-71
2022/07/13 02:57:07;;;;;;;8.00;7.50;;;21.60;99.90;;;;;;5074301;28;20506;-72
2022/07/13 02:59:35;;;;;;;8.87;8.20;;;21.60;99.90;;;;;;5075115;28;20252;-72
2022/07/13 03:02:01;;;;;;;7.90;7.40;;;21.60;99.90;;;;;;5073076;28;20196;-72
2022/07/13 03:04:27;;;;;;;7.53;6.93;;;21.60;99.90;;;;;;5074996;28;20408;-71
2022/07/13 03:06:53;;;;;;;7.77;7.17;;;21.60;99.90;;;;;;5071798;28;20451;-74
2022/07/13 03:09:18;;;;;;;8.27;7.70;;;21.70;99.90;;;;;;5072928;28;20176;-72
2022/07/13 03:11:44;;;;;;;8.40;7.80;;;21.70;99.90;;;;;;5073602;28;20469;-72
2022/07/13 03:14:10;;;;;;;7.80;7.30;;;21.70;99.90;;;;;;5073213;28;20184;-71
2022/07/13 03:16:35;;;;;;;7.37;6.87;;;21.70;99.90;;;;;;5073448;28;20191;-71
2022/07/13 03:19:01;;;;;;;7.20;6.80;;;21.80;99.90;;;;;;5071675;28;20176;-72
2022/07/13 03:21:29;;;;;;;7.87;7.37;;;21.80;99.90;;;;;;5074620;28;20256;-71
2022/07/13 03:23:58;;;;;;;7.83;7.33;;;21.80;99.90;;;;;;5073177;28;20259;-75
2022/07/13 03:26:24;;;;;;;9.30;8.60;;;21.80;99.90;;;;;;5074649;28;20939;-71
2022/07/13 03:28:50;;;;;;;8.90;8.07;;;21.80;99.90;;;;;;5074461;28;20463;-71
2022/07/13 03:31:17;;;;;;;8.43;7.80;;;21.80;99.90;;;;;;5066109;28;20434;-71
2022/07/13 03:33:43;;;;;;;8.00;7.50;;;21.80;99.90;;;;;;5047587;28;20478;-72
2022/07/13 03:36:08;;;;;;;7.80;7.30;;;21.80;99.90;;;;;;5053565;28;20423;-71
2022/07/13 03:38:35;;;;;;;7.73;7.23;;;21.80;99.90;;;;;;5045604;28;20439;-71
2022/07/13 03:41:01;;;;;;;7.30;6.80;;;21.80;99.90;;;;;;5073499;28;20539;-72
2022/07/13 03:43:26;;;;;;;8.00;7.50;;;21.80;99.90;;;;;;5074215;28;20411;-72
2022/07/13 03:45:52;;;;;;;8.07;7.57;;;21.80;99.90;;;;;;5067068;28;20622;-71
2022/07/13 03:48:18;;;;;;;12.30;11.60;;;21.80;99.90;;;;;;5053338;28;20205;-71
2022/07/13 03:50:45;;;;;;;7.23;6.73;;;21.80;99.90;;;;;;5054075;28;20178;-71
2022/07/13 03:53:11;;;;;;;7.23;6.63;;;21.80;99.90;;;;;;5062232;28;20181;-72
2022/07/13 03:55:38;;;;;;;11.13;10.33;;;21.80;99.90;;;;;;5069368;28;20415;-72
2022/07/13 03:58:04;;;;;;;9.43;8.93;;;21.80;99.90;;;;;;5052978;28;20428;-72
2022/07/13 04:00:31;;;;;;;7.17;6.67;;;21.70;99.90;;;;;;5054230;28;20778;-71
2022/07/13 04:02:57;;;;;;;7.70;7.00;;;21.80;99.90;;;;;;5039269;28;20938;-73
2022/07/13 04:05:24;;;;;;;8.63;8.13;;;21.80;99.90;;;;;;5052753;28;20477;-73
2022/07/13 04:07:50;;;;;;;8.23;7.73;;;21.70;99.90;;;;;;5052931;28;20951;-72
2022/07/13 04:10:18;;;;;;;9.07;8.40;;;21.80;99.90;;;;;;5049461;28;20478;-71
2022/07/13 04:12:44;;;;;;;9.17;8.50;;;21.80;99.90;;;;;;5053250;28;20767;-71
2022/07/13 04:15:11;;;;;;;8.27;7.70;;;21.80;99.90;;;;;;5053646;28;20511;-71
2022/07/13 04:17:37;;;;;;;9.90;9.30;;;21.70;99.90;;;;;;5057954;28;20432;-72
2022/07/13 04:20:03;;;;;;;7.90;7.40;;;21.70;99.90;;;;;;5051831;28;20459;-71
2022/07/13 04:22:29;;;;;;;8.10;7.50;;;21.80;99.90;;;;;;5053471;28;20503;-71
2022/07/13 04:24:55;;;;;;;10.80;10.20;;;21.80;99.90;;;;;;5053484;28;20632;-71
2022/07/13 04:27:21;;;;;;;8.63;7.93;;;21.80;99.90;;;;;;5051797;28;20690;-71
2022/07/13 04:29:46;;;;;;;7.80;7.30;;;21.80;99.90;;;;;;5053367;28;20170;-71
2022/07/13 04:32:12;;;;;;;8.87;8.07;;;21.80;99.90;;;;;;5051375;28;20638;-71
2022/07/13 04:34:38;;;;;;;9.70;9.10;;;21.80;99.90;;;;;;5053272;28;20185;-71
2022/07/13 04:37:03;;;;;;;9.70;9.10;;;21.80;99.90;;;;;;5052198;28;20218;-71
2022/07/13 04:39:30;;;;;;;8.90;8.30;;;21.80;99.90;;;;;;5053646;28;20248;-71
2022/07/13 04:41:55;;;;;;;7.50;6.90;;;21.80;99.90;;;;;;5050848;28;20204;-71
2022/07/13 04:44:21;;;;;;;6.67;6.17;;;21.80;99.90;;;;;;5052336;28;20405;-71
2022/07/13 04:46:47;;;;;;;7.90;7.27;;;21.80;99.90;;;;;;5046826;28;20185;-71
2022/07/13 04:49:13;;;;;;;7.53;6.83;;;21.80;99.90;;;;;;5050929;28;20516;-71
2022/07/13 04:51:39;;;;;;;8.97;8.40;;;21.90;99.90;;;;;;5029852;28;20265;-71
2022/07/13 04:54:05;;;;;;;10.70;10.10;;;21.90;99.90;;;;;;5014638;28;20468;-72
2022/07/13 04:56:30;;;;;;;7.93;7.43;;;21.90;99.90;;;;;;5035666;28;20185;-71
2022/07/13 04:58:56;;;;;;;7.87;7.27;;;21.90;99.90;;;;;;5043706;28;20197;-71
2022/07/13 05:01:22;;;;;;;12.00;11.30;;;21.90;99.90;;;;;;5050789;28;20320;-71
2022/07/13 05:03:48;;;;;;;8.50;7.90;;;21.90;99.90;;;;;;5052010;28;20514;-71
2022/07/13 05:06:14;;;;;;;9.10;8.50;;;21.90;99.90;;;;;;5051836;28;20677;-71
2022/07/13 05:08:40;;;;;;;8.37;7.50;;;22.00;99.90;;;;;;5052575;28;20227;-71
2022/07/13 05:11:08;;;;;;;10.57;9.00;;;22.00;99.90;;;;;;5050930;28;20435;-73
2022/07/13 05:13:34;;;;;;;10.63;8.70;;;22.00;99.90;;;;;;5051305;28;20420;-71
2022/07/13 05:16:00;;;;;;;8.70;7.80;;;22.00;99.90;;;;;;5050363;28;20428;-73
2022/07/13 05:18:25;;;;;;;8.87;7.93;;;22.10;99.90;;;;;;5047619;28;20951;-74
2022/07/13 05:20:51;;;;;;;10.87;8.27;;;22.10;99.90;;;;;;5050708;28;20494;-71
2022/07/13 05:23:17;;;;;;;8.70;7.80;;;22.10;99.90;;;;;;5048400;28;20186;-72
2022/07/13 05:25:42;;;;;;;11.20;10.10;;;22.20;99.90;;;;;;5046637;28;20265;-71
2022/07/13 05:28:08;;;;;;;10.77;9.77;;;22.30;99.90;;;;;;5050526;28;20205;-72
2022/07/13 05:30:34;;;;;;;10.37;9.37;;;22.40;99.90;;;;;;5051718;28;20182;-71
2022/07/13 05:32:59;;;;;;;10.50;9.60;;;22.50;99.90;;;;;;5051465;28;20265;-76
2022/07/13 05:35:26;;;;;;;12.00;10.70;;;22.60;99.90;;;;;;5045229;28;20518;-71
2022/07/13 05:37:51;;;;;;;12.70;11.40;;;22.70;99.90;;;;;;5048853;28;20177;-71
2022/07/13 05:40:17;;;;;;;19.63;12.60;;;22.70;99.90;;;;;;5051271;28;20420;-71
2022/07/13 05:42:43;;;;;;;13.47;10.30;;;22.70;99.90;;;;;;5047450;28;20519;-71
2022/07/13 05:45:09;;;;;;;32.30;21.00;;;22.70;99.90;;;;;;5048673;28;20209;-72
2022/07/13 05:47:35;;;;;;;16.00;12.83;;;22.80;99.90;;;;;;5046533;28;20566;-72
2022/07/13 05:50:01;;;;;;;18.00;15.60;;;22.80;99.90;;;;;;5052094;28;20414;-71
2022/07/13 05:52:26;;;;;;;12.73;11.03;;;22.90;99.90;;;;;;5051527;28;20228;-67
2022/07/13 05:54:54;;;;;;;11.43;10.30;;;23.00;99.90;;;;;;5046970;28;20186;-70
2022/07/13 05:57:20;;;;;;;16.23;14.70;;;23.00;99.90;;;;;;5052064;28;20184;-71
2022/07/13 05:59:46;;;;;;;13.60;10.53;;;23.10;99.90;;;;;;5052527;28;20420;-70
2022/07/13 06:02:11;;;;;;;11.27;8.93;;;23.20;99.90;;;;;;5028621;28;20185;-70
2022/07/13 06:04:38;;;;;;;11.80;9.43;;;23.20;99.90;;;;;;5026841;28;20182;-71
2022/07/13 06:07:03;;;;;;;10.27;9.23;;;23.20;99.90;;;;;;5048612;28;20224;-75
2022/07/13 06:09:29;;;;;;;8.67;7.67;;;23.20;99.90;;;;;;5037676;28;20436;-71
2022/07/13 06:11:55;;;;;;;14.57;11.60;;;23.30;99.90;;;;;;5046276;28;20186;-71
2022/07/13 06:14:20;;;;;;;9.73;8.27;;;23.40;99.90;;;;;;5050112;28;20174;-72
2022/07/13 06:16:46;;;;;;;9.13;7.83;;;23.40;99.90;;;;;;5046163;28;20186;-71
2022/07/13 06:19:12;;;;;;;11.13;7.30;;;23.40;99.90;;;;;;5049685;28;20703;-71
2022/07/13 06:21:37;;;;;;;12.50;9.60;;;23.50;99.90;;;;;;5052230;28;20217;-70
2022/07/13 06:24:03;;;;;;;9.60;8.70;;;23.50;99.90;;;;;;5034098;28;20235;-72
2022/07/13 06:26:30;;;;;;;9.60;8.70;;;23.50;99.90;;;;;;5045030;28;20178;-71
2022/07/13 06:28:56;;;;;;;9.57;8.57;;;23.60;99.90;;;;;;5051530;28;20498;-71
2022/07/13 06:31:21;;;;;;;10.10;8.80;;;23.60;99.90;;;;;;5046897;28;20455;-71
2022/07/13 06:33:51;;;;;;;12.47;8.27;;;23.60;99.90;;;;;;5032170;28;20284;-71
2022/07/13 06:36:18;;;;;;;15.87;9.40;;;23.60;99.90;;;;;;5050820;28;20220;-71
2022/07/13 06:38:43;;;;;;;19.07;9.97;;;23.70;99.90;;;;;;5051558;28;20537;-71
2022/07/13 06:41:09;;;;;;;11.50;8.80;;;23.80;99.90;;;;;;4979420;28;20428;-75
2022/07/13 06:43:35;;;;;;;9.40;8.47;;;23.80;99.90;;;;;;5044554;28;20650;-73
2022/07/13 06:46:01;;;;;;;9.27;8.40;;;23.90;99.90;;;;;;5050850;28;20235;-67
2022/07/13 06:48:27;;;;;;;10.43;9.20;;;23.90;99.90;;;;;;5054149;28;20221;-67
2022/07/13 06:50:52;;;;;;;9.50;8.00;;;23.90;99.90;;;;;;5037262;28;20528;-67
2022/07/13 06:53:18;;;;;;;9.10;8.20;;;24.00;99.90;;;;;;5054854;28;20182;-67
2022/07/13 06:55:44;;;;;;;13.53;8.90;;;24.00;99.90;;;;;;5055540;28;20182;-67
2022/07/13 06:58:09;;;;;;;10.13;9.23;;;24.10;99.90;;;;;;5047508;28;20217;-67
2022/07/13 07:00:35;;;;;;;8.80;7.83;;;24.10;99.60;;;;;;5055188;28;20184;-67
2022/07/13 07:03:01;;;;;;;8.63;7.87;;;24.20;99.50;;;;;;5003701;28;20173;-67
2022/07/13 07:05:26;;;;;;;5.00;4.70;;;24.20;98.70;;;;;;5050813;28;20210;-67
2022/07/13 07:07:52;;;;;;;8.73;8.03;;;24.20;96.80;;;;;;5055185;28;20218;-67
2022/07/13 07:10:18;;;;;;;7.33;6.83;;;24.20;96.30;;;;;;5035066;28;20179;-67
2022/07/13 07:12:44;;;;;;;5.90;5.40;;;24.20;97.10;;;;;;5053756;28;20247;-67
2022/07/13 07:15:10;;;;;;;8.20;6.93;;;24.30;97.10;;;;;;5051591;28;20182;-68
2022/07/13 07:17:48;;;;;;;5.90;5.50;;;24.30;96.50;;;;;;5051672;28;20312;-67
2022/07/13 07:20:15;;;;;;;5.83;5.30;;;24.40;97.10;;;;;;5056312;28;20221;-67
2022/07/13 07:22:41;;;;;;;7.53;7.03;;;24.50;96.50;;;;;;5058257;28;20448;-67
2022/07/13 07:25:08;;;;;;;6.27;5.77;;;24.60;96.90;;;;;;5054311;28;20424;-67
2022/07/13 07:27:34;;;;;;;6.53;4.77;;;24.60;95.80;;;;;;5054860;28;20795;-67
2022/07/13 07:29:59;;;;;;;6.50;5.97;;;24.70;95.90;;;;;;5054607;28;20448;-67
2022/07/13 07:32:25;;;;;;;7.53;7.03;;;24.70;95.40;;;;;;5054057;28;20514;-67
2022/07/13 07:34:51;;;;;;;4.70;4.40;;;24.80;94.60;;;;;;5037077;28;20170;-67
2022/07/13 07:37:20;;;;;;;6.17;5.57;;;24.80;94.30;;;;;;5054202;28;20170;-67
2022/07/13 07:39:46;;;;;;;5.40;5.10;;;24.80;94.20;;;;;;5054696;28;20247;-67
2022/07/13 07:42:12;;;;;;;4.80;4.50;;;24.90;94.90;;;;;;5058403;28;20438;-67
2022/07/13 07:44:38;;;;;;;4.90;4.60;;;24.90;92.50;;;;;;5071592;28;20931;-65
2022/07/13 07:47:03;;;;;;;4.37;4.17;;;24.90;91.70;;;;;;5068290;28;20194;-67
2022/07/13 07:49:29;;;;;;;5.37;5.07;;;25.10;91.90;;;;;;5063134;28;20247;-68
2022/07/13 07:51:55;;;;;;;4.40;4.20;;;25.20;91.70;;;;;;5060843;28;20203;-65
2022/07/13 07:54:20;;;;;;;5.33;5.03;;;25.20;91.50;;;;;;5039987;28;20189;-65
2022/07/13 07:56:46;;;;;;;5.50;5.10;;;25.40;91.10;;;;;;5062088;28;20185;-65
2022/07/13 07:59:12;;;;;;;4.80;4.50;;;25.50;91.40;;;;;;5062340;28;20220;-65
2022/07/13 08:01:38;;;;;;;4.70;4.50;;;25.50;90.00;;;;;;5050812;28;20206;-65
2022/07/13 08:04:04;;;;;;;7.30;7.00;;;25.70;88.50;;;;;;5049625;28;20530;-65
2022/07/13 08:06:30;;;;;;;4.23;3.70;;;25.80;86.60;;;;;;5043646;28;20736;-65
2022/07/13 08:08:55;;;;;;;3.93;3.73;;;26.00;87.50;;;;;;5051713;28;20301;-65
2022/07/13 08:11:21;;;;;;;7.17;6.70;;;26.20;86.90;;;;;;5033457;28;20645;-65
2022/07/13 08:13:47;;;;;;;4.73;4.43;;;26.40;86.20;;;;;;5043151;28;20261;-65
2022/07/13 08:16:17;;;;;;;4.13;3.83;;;26.60;83.80;;;;;;5025350;28;20183;-68
2022/07/13 08:18:43;;;;;;;5.33;5.03;;;26.70;80.00;;;;;;5041656;28;20435;-65
2022/07/13 08:21:09;;;;;;;4.47;4.17;;;26.80;80.60;;;;;;5049354;28;20488;-65
2022/07/13 08:23:51;;;;;;;5.60;5.20;;;26.90;79.80;;;;;;5049462;28;20960;-65
2022/07/13 08:26:20;;;;;;;7.00;6.70;;;26.90;79.20;;;;;;5048837;28;20467;-65
2022/07/13 08:28:46;;;;;;;3.97;3.67;;;27.00;79.40;;;;;;5050309;28;20551;-65
2022/07/13 08:31:12;;;;;;;4.07;3.77;;;27.00;77.30;;;;;;5049933;28;20435;-66
2022/07/13 08:39:09;;;;;;;4.13;3.83;;;27.20;75.00;;;;;;5034213;28;20526;-65
2022/07/13 08:41:35;;;;;;;4.80;4.50;;;27.20;74.60;;;;;;5049392;28;20527;-65
2022/07/13 08:44:02;;;;;;;6.40;6.00;;;27.10;74.40;;;;;;5052411;28;20515;-65
2022/07/13 08:46:27;;;;;;;4.57;3.70;;;27.10;72.10;;;;;;5051993;28;20264;-65
2022/07/13 08:48:55;;;;;;;6.40;6.00;;;27.00;71.90;;;;;;5051448;28;21029;-65
2022/07/13 08:51:23;;;;;;;4.33;4.13;;;26.90;72.60;;;;;;5034374;28;20625;-65
2022/07/13 08:53:56;;;;;;;7.47;6.87;;;26.90;72.50;;;;;;5049015;28;20447;-65
2022/07/13 08:56:22;;;;;;;4.90;4.37;;;27.00;73.00;;;;;;5052719;28;20400;-65
2022/07/13 08:58:49;;;;;;;7.10;6.70;;;26.90;73.40;;;;;;5052926;28;20420;-65
2022/07/13 09:01:15;;;;;;;4.40;4.10;;;26.90;72.70;;;;;;5052671;28;20450;-66
2022/07/13 09:07:21;;;;;;;4.67;4.23;;;26.90;72.10;;;;;;5050168;28;20962;-66
2022/07/13 09:09:52;;;;;;;4.77;4.47;;;27.00;73.70;;;;;;5047114;28;20428;-66
2022/07/13 09:12:24;;;;;;;4.70;4.37;;;27.10;74.00;;;;;;5044654;28;20521;-69
2022/07/13 09:14:51;;;;;;;4.73;4.50;;;27.10;72.00;;;;;;5050247;28;20504;-65
2022/07/13 09:17:33;;;;;;;5.77;4.60;;;27.20;71.90;;;;;;5051990;28;20930;-66
2022/07/13 09:20:03;;;;;;;5.27;4.97;;;27.10;70.90;;;;;;5052315;28;20424;-66
2022/07/13 09:22:29;;;;;;;4.37;4.17;;;27.20;72.00;;;;;;5052379;28;20448;-65
2022/07/13 09:24:55;;;;;;;4.60;4.30;;;27.20;71.70;;;;;;5050954;28;20951;-65
2022/07/13 09:27:21;;;;;;;6.20;5.80;;;27.30;70.50;;;;;;5049928;28;20471;-66
2022/07/13 09:29:47;;;;;;;6.13;5.23;;;27.50;71.90;;;;;;5048119;28;20642;-65
2022/07/13 09:32:14;;;;;;;10.13;5.47;;;27.50;69.90;;;;;;4985642;28;20462;-66
2022/07/13 09:34:51;;;;;;;5.57;5.27;;;27.50;68.30;;;;;;4986485;28;20518;-66
2022/07/13 09:37:19;;;;;;;5.60;5.10;;;27.70;70.10;;;;;;4986106;28;20446;-67
2022/07/13 09:40:07;;;;;;;5.40;4.37;;;27.90;70.00;;;;;;4989111;28;20462;-66
2022/07/13 09:42:38;;;;;;;4.77;4.47;;;28.00;69.00;;;;;;4989587;28;20530;-66
2022/07/13 09:47:55;;;;;;;5.00;4.70;;;28.10;70.70;;;;;;4986029;28;20925;-66
2022/07/13 09:50:36;;;;;;;5.23;4.87;;;28.30;69.80;;;;;;4988442;28;20438;-68
2022/07/13 09:53:21;;;;;;;4.97;4.57;;;28.30;68.70;;;;;;4990746;28;20442;-65
2022/07/13 09:55:48;;;;;;;6.37;4.73;;;28.30;67.30;;;;;;4988087;28;20435;-66
2022/07/13 09:58:17;;;;;;;6.40;6.00;;;28.30;69.50;;;;;;4988514;28;20446;-66
2022/07/13 10:00:43;;;;;;;4.93;4.57;;;28.40;70.10;;;;;;4988909;28;20553;-66
2022/07/13 10:03:11;;;;;;;7.40;6.90;;;28.40;69.20;;;;;;5015448;28;20435;-66
2022/07/13 10:05:37;;;;;;;5.27;4.97;;;28.40;68.50;;;;;;5036971;28;20705;-66
2022/07/13 10:08:03;;;;;;;4.47;4.07;;;28.40;68.70;;;;;;5050918;28;20538;-66
2022/07/13 10:10:29;;;;;;;7.47;6.70;;;28.40;67.50;;;;;;5050360;28;20185;-66
2022/07/13 10:13:05;;;;;;;4.60;4.30;;;28.40;68.50;;;;;;5052305;28;20954;-66
2022/07/13 10:15:31;;;;;;;5.30;4.90;;;28.50;68.20;;;;;;5051724;28;20400;-66
2022/07/13 10:18:00;;;;;;;5.70;5.20;;;28.50;68.10;;;;;;5053045;28;20770;-66
2022/07/13 10:20:28;;;;;;;6.20;5.57;;;28.50;67.20;;;;;;5051533;28;20547;-66
2022/07/13 10:22:54;;;;;;;4.13;3.93;;;28.50;64.90;;;;;;5043592;28;20435;-65
2022/07/13 10:25:23;;;;;;;4.83;4.53;;;28.50;65.60;;;;;;5037189;28;20408;-67
2022/07/13 10:28:05;;;;;;;5.20;4.90;;;28.40;66.10;;;;;;5055334;28;20460;-66
2022/07/13 10:30:31;;;;;;;4.17;3.97;;;28.50;65.20;;;;;;5050515;28;20432;-66
2022/07/13 10:33:18;;;;;;;4.13;3.93;;;28.40;63.60;;;;;;5052558;28;20481;-66
2022/07/13 10:35:51;;;;;;;5.67;5.37;;;28.50;64.40;;;;;;5035804;28;20411;-66
2022/07/13 10:38:20;;;;;;;5.03;4.63;;;28.60;64.40;;;;;;5038416;28;20423;-66
2022/07/13 10:40:46;;;;;;;4.10;3.90;;;28.60;63.40;;;;;;5054735;28;20443;-65
2022/07/13 10:43:16;;;;;;;5.07;4.70;;;28.60;62.90;;;;;;5053610;28;20428;-66
2022/07/13 10:45:52;;;;;;;4.70;4.40;;;28.60;65.10;;;;;;5049843;28;20424;-69
2022/07/13 10:48:29;;;;;;;5.60;5.20;;;28.60;64.80;;;;;;5053400;28;20474;-66
2022/07/13 10:50:57;;;;;;;9.53;4.17;;;28.60;65.20;;;;;;5055558;28;20537;-65
2022/07/13 10:53:38;;;;;;;6.33;5.93;;;28.70;66.50;;;;;;5054727;28;20409;-66
2022/07/13 10:56:25;;;;;;;5.30;5.00;;;28.70;67.70;;;;;;5055744;28;20431;-66
2022/07/13 10:58:51;;;;;;;5.40;5.03;;;28.70;66.10;;;;;;5055166;28;20821;-66
2022/07/13 11:01:48;;;;;;;4.70;4.40;;;28.70;68.20;;;;;;5055542;28;20404;-66
2022/07/13 11:04:17;;;;;;;5.00;4.70;;;28.60;66.60;;;;;;5055565;28;20158;-66
2022/07/13 11:07:06;;;;;;;5.40;4.90;;;28.70;65.00;;;;;;5054881;28;20719;-65
2022/07/13 11:09:32;;;;;;;5.80;5.40;;;28.60;63.20;;;;;;5053930;28;20444;-66
2022/07/13 11:11:58;;;;;;;5.90;5.47;;;28.60;64.20;;;;;;5055305;28;20762;-65
2022/07/13 11:14:36;;;;;;;5.27;5.00;;;28.60;64.70;;;;;;5054642;28;20169;-66
2022/07/13 11:17:11;;;;;;;6.60;5.57;;;28.60;65.10;;;;;;5055287;28;20174;-65
2022/07/13 11:20:00;;;;;;;8.83;6.90;;;28.60;66.00;;;;;;5054718;28;20465;-65
2022/07/13 11:25:39;;;;;;;4.97;4.67;;;28.60;66.50;;;;;;5055277;28;20400;-65
2022/07/13 11:28:30;;;;;;;4.40;4.20;;;28.60;68.00;;;;;;5042848;28;20808;-66
2022/07/13 11:30:56;;;;;;;4.27;3.97;;;28.50;67.70;;;;;;5053640;28;20404;-65
2022/07/13 11:33:23;;;;;;;4.53;4.33;;;28.40;68.60;;;;;;5037197;28;20415;-66
2022/07/13 11:35:50;;;;;;;4.47;4.27;;;28.40;69.20;;;;;;5037051;28;20404;-66
2022/07/13 11:38:19;;;;;;;4.50;4.30;;;28.30;69.70;;;;;;5054016;28;20428;-66
2022/07/13 11:40:45;;;;;;;4.30;3.90;;;28.30;68.80;;;;;;5054285;28;20408;-66
2022/07/13 11:43:11;;;;;;;4.63;4.33;;;28.20;69.90;;;;;;5054477;28;20408;-66
2022/07/13 11:45:39;;;;;;;5.20;4.80;;;28.20;69.20;;;;;;5054142;28;20472;-65
2022/07/13 11:48:09;;;;;;;4.87;4.57;;;28.20;71.50;;;;;;5054565;28;20231;-65
2022/07/13 11:50:53;;;;;;;4.27;3.97;;;28.10;69.40;;;;;;5053789;28;20658;-65
2022/07/13 11:53:30;;;;;;;7.13;6.73;;;28.00;70.90;;;;;;5036823;28;20424;-65
2022/07/13 11:56:02;;;;;;;4.37;4.07;;;28.10;71.80;;;;;;5054577;28;20418;-66
2022/07/13 11:58:31;;;;;;;7.40;7.10;;;28.10;71.20;;;;;;5053954;28;20408;-66
2022/07/13 12:01:08;;;;;;;6.27;5.87;;;28.10;71.90;;;;;;5054551;28;20412;-65
2022/07/13 12:03:34;;;;;;;5.17;4.33;;;28.10;72.90;;;;;;5053915;28;20454;-65
2022/07/13 12:06:09;;;;;;;7.10;6.70;;;28.10;70.90;;;;;;5054391;28;20478;-66
2022/07/13 12:08:36;;;;;;;4.70;4.27;;;28.00;71.10;;;;;;5052624;28;20470;-66
2022/07/13 12:11:04;;;;;;;6.47;6.13;;;28.10;72.90;;;;;;5054329;28;20479;-66
2022/07/13 12:13:35;;;;;;;5.17;4.77;;;28.20;73.50;;;;;;5053364;28;20884;-65
2022/07/13 12:16:01;;;;;;;5.53;5.03;;;28.30;74.30;;;;;;5054211;28;20400;-65
2022/07/13 12:18:28;;;;;;;4.80;4.50;;;28.50;72.80;;;;;;5053522;28;20411;-66
2022/07/13 12:20:55;;;;;;;6.10;5.60;;;28.60;72.00;;;;;;5054087;28;20803;-66
2022/07/13 12:23:21;;;;;;;5.60;5.10;;;28.70;72.70;;;;;;5052683;28;20506;-66
2022/07/13 12:25:47;;;;;;;4.87;4.57;;;28.80;70.40;;;;;;5051564;28;20432;-66
2022/07/13 12:28:13;;;;;;;5.10;4.77;;;28.90;69.50;;;;;;5002244;28;20213;-65
2022/07/13 12:31:00;;;;;;;5.50;5.00;;;28.80;69.10;;;;;;5001743;28;20783;-66
2022/07/13 12:33:43;;;;;;;4.23;4.03;;;28.80;69.60;;;;;;5053525;28;20200;-71
2022/07/13 12:36:09;;;;;;;6.27;5.77;;;28.70;68.60;;;;;;5052481;28;20388;-66
2022/07/13 12:38:51;;;;;;;3.77;3.57;;;28.60;69.40;;;;;;5053055;28;20419;-66
2022/07/13 12:41:27;;;;;;;6.43;5.93;;;28.60;70.80;;;;;;5053670;28;20408;-65
2022/07/13 12:44:02;;;;;;;3.90;3.60;;;28.60;71.90;;;;;;5053606;28;20404;-65
2022/07/13 12:46:47;;;;;;;6.27;5.70;;;28.70;71.90;;;;;;5052978;28;20458;-67
2022/07/13 12:49:13;;;;;;;4.70;4.30;;;28.70;72.60;;;;;;5053295;28;20463;-66
2022/07/13 12:51:48;;;;;;;3.40;3.20;;;28.70;69.80;;;;;;5052870;28;20470;-66
2022/07/13 12:54:14;;;;;;;3.83;3.63;;;28.60;70.10;;;;;;5053403;28;20416;-66
2022/07/13 12:56:51;;;;;;;4.57;4.27;;;28.60;70.30;;;;;;5052483;28;20461;-65
2022/07/13 12:59:19;;;;;;;3.30;3.00;;;28.60;70.00;;;;;;5053439;28;20169;-66
2022/07/13 13:01:45;;;;;;;5.00;4.60;;;28.60;70.50;;;;;;5052538;28;20758;-66
2022/07/13 13:04:12;;;;;;;4.13;3.83;;;28.60;71.50;;;;;;5034469;28;20432;-66